ポートモレスビー の空港の天気 - METARとTAF

ポートモレスビー・ジャクソン国際空港 ( AYPY / POM ) - パプアニューギニア ポートモレスビー
飛行場実況気象(Metar)
観測時間05/27 09:00 PGT (05/26 23:00 UTC)
風向・風速南南東 3m/s
視程10km以上
天気現象しゅう雨
全天の4割程度の雲 雲底高度 300m
全天の8割程度の雲 雲底高度 910m
気温28℃
湿度89%
気圧1014hPa
METARAYPY 262300Z 15005KT 9999 SHRA SCT010 BKN030 28/26 Q1014
過去の天気等 Google飛行場航空写真 Wunderground天気予報

過去48時間のMETAR

飛行場予報(TAF)
発表時間: 5/27 08:40 PGT (5/26 22:40 UTC)
予報対象時間: 27日10時 PGT ~ 28日10時 PGT
風向・風速南 5m/s
視程10km以上
天気現象弱いしゅう雨
全天の4割程度の雲 雲底高度 460m
全天の8割程度の雲 雲底高度 910m
TAF AYPY 262240Z 2700/2800 17010KT 9999 -SHRA SCT015 BKN030 INTER 2703/2712 4000 +SHRA BKN008 T 30 31 29 27 Q 1014 1013 1011 1012